createdAt,value
2023-05-11T00:01:04.046Z,16.72
2023-05-11T00:03:05.751Z,16.69
2023-05-11T00:05:08.075Z,16.66
2023-05-11T00:07:10.096Z,16.64
2023-05-11T00:09:11.666Z,16.61
2023-05-11T00:11:15.059Z,16.57
2023-05-11T00:13:17.438Z,16.54
2023-05-11T00:15:19.482Z,16.53
2023-05-11T00:17:21.311Z,16.50
2023-05-11T00:19:23.197Z,16.47
2023-05-11T00:21:25.025Z,16.42
2023-05-11T00:23:27.077Z,16.37
2023-05-11T00:25:28.921Z,16.32
2023-05-11T00:27:32.115Z,16.26
2023-05-11T00:29:34.817Z,16.20
2023-05-11T00:31:36.455Z,16.15
2023-05-11T00:33:38.433Z,16.10
2023-05-11T00:35:40.462Z,16.05
2023-05-11T00:37:41.993Z,16.01
2023-05-11T00:39:44.074Z,15.97
2023-05-11T00:41:45.671Z,15.93
2023-05-11T00:43:48.995Z,15.89
2023-05-11T00:45:50.697Z,15.86
2023-05-11T00:47:52.675Z,15.82
2023-05-11T00:49:54.964Z,15.79
2023-05-11T00:51:56.960Z,15.76
2023-05-11T00:53:59.242Z,15.75
2023-05-11T00:56:01.472Z,15.71
2023-05-11T00:58:03.518Z,15.70
2023-05-11T01:00:08.668Z,15.69
2023-05-11T01:02:11.049Z,15.65
2023-05-11T01:04:13.362Z,15.62
2023-05-11T01:06:25.748Z,15.60
2023-05-11T01:08:36.257Z,15.58
2023-05-11T01:10:43.528Z,15.55
2023-05-11T01:12:53.424Z,15.53
2023-05-11T01:15:02.191Z,15.50
2023-05-11T01:17:11.981Z,15.47
2023-05-11T01:19:36.728Z,15.43
2023-05-11T01:21:41.285Z,15.37
2023-05-11T01:24:12.490Z,15.34
2023-05-11T01:26:39.213Z,15.28
2023-05-11T01:29:07.625Z,15.22
2023-05-11T01:31:12.798Z,15.17
2023-05-11T01:33:16.571Z,15.14
2023-05-11T01:35:21.012Z,15.11
2023-05-11T01:37:24.552Z,15.09
2023-05-11T01:39:32.935Z,15.06
2023-05-11T01:41:38.013Z,15.04
2023-05-11T01:43:41.043Z,15.02
2023-05-11T01:45:47.895Z,14.99
2023-05-11T01:47:55.895Z,14.97
2023-05-11T01:50:01.361Z,14.94
2023-05-11T01:52:05.598Z,14.91
2023-05-11T01:54:09.053Z,14.90
2023-05-11T01:56:11.823Z,14.87
2023-05-11T01:58:15.558Z,14.85
2023-05-11T02:00:19.065Z,14.84
2023-05-11T02:02:21.809Z,14.83
2023-05-11T02:04:26.709Z,14.83
2023-05-11T02:06:30.366Z,14.81
2023-05-11T02:08:33.315Z,14.80
2023-05-11T02:10:37.180Z,14.80
2023-05-11T02:12:40.971Z,14.79
2023-05-11T02:14:43.636Z,14.79
2023-05-11T02:16:48.379Z,14.78
2023-05-11T02:18:50.734Z,14.78
2023-05-11T02:20:56.280Z,14.77
2023-05-11T02:22:58.967Z,14.77
2023-05-11T02:25:00.897Z,14.75
2023-05-11T02:27:02.993Z,14.74
2023-05-11T02:29:04.710Z,14.73
2023-05-11T02:31:12.324Z,14.73
2023-05-11T02:33:20.989Z,14.74
2023-05-11T02:35:26.148Z,14.73
2023-05-11T02:37:31.057Z,14.74
2023-05-11T02:39:36.532Z,14.75
2023-05-11T02:41:43.708Z,14.75
2023-05-11T02:43:49.554Z,14.76
2023-05-11T02:45:54.584Z,14.76
2023-05-11T02:47:59.395Z,14.76
2023-05-11T02:50:04.352Z,14.75
2023-05-11T02:52:07.785Z,14.76
2023-05-11T02:54:13.349Z,14.78
2023-05-11T02:56:15.252Z,14.76
2023-05-11T02:58:18.640Z,14.79
2023-05-11T03:00:20.738Z,14.78
2023-05-11T03:02:23.179Z,14.79
2023-05-11T03:04:25.026Z,14.79
2023-05-11T03:06:26.807Z,14.80
2023-05-11T03:08:29.598Z,14.80
2023-05-11T03:10:36.882Z,14.81
2023-05-11T03:12:44.341Z,14.82
2023-05-11T03:14:46.465Z,14.83
2023-05-11T03:16:49.144Z,14.84
2023-05-11T03:18:58.019Z,14.85
2023-05-11T03:21:02.434Z,14.84
2023-05-11T03:23:06.264Z,14.84
2023-05-11T03:25:10.088Z,14.84
2023-05-11T03:27:14.306Z,14.84
2023-05-11T03:29:17.767Z,14.84
2023-05-11T03:31:19.494Z,14.84
2023-05-11T03:33:21.302Z,14.85
2023-05-11T03:35:27.377Z,14.85
2023-05-11T03:37:30.318Z,14.86
2023-05-11T03:39:36.415Z,14.86
2023-05-11T03:41:40.233Z,14.89
2023-05-11T03:43:45.139Z,15.01
2023-05-11T03:45:48.284Z,15.01
2023-05-11T03:47:52.191Z,14.98
2023-05-11T03:49:55.201Z,14.97
2023-05-11T03:51:57.771Z,15.01
2023-05-11T03:53:59.727Z,15.03
2023-05-11T03:56:01.680Z,15.04
2023-05-11T03:58:07.685Z,15.05
2023-05-11T04:00:12.664Z,15.04
2023-05-11T04:02:14.543Z,15.06
2023-05-11T04:04:17.724Z,15.07
2023-05-11T04:06:19.769Z,15.08
2023-05-11T04:08:21.728Z,15.08
2023-05-11T04:10:23.356Z,15.08
2023-05-11T04:12:25.055Z,15.09
2023-05-11T04:14:27.013Z,15.09
2023-05-11T04:16:30.136Z,15.09
2023-05-11T04:18:31.839Z,15.10
2023-05-11T04:20:33.687Z,15.10
2023-05-11T04:22:35.435Z,15.11
2023-05-11T04:24:37.495Z,15.13
2023-05-11T04:26:39.381Z,15.14
2023-05-11T04:28:40.965Z,15.15
2023-05-11T04:30:42.548Z,15.15
2023-05-11T04:32:45.486Z,15.17
2023-05-11T04:34:47.118Z,15.18
2023-05-11T04:36:49.112Z,15.19
2023-05-11T04:38:50.977Z,15.20
2023-05-11T04:40:52.571Z,15.21
2023-05-11T04:42:54.199Z,15.21
2023-05-11T04:44:55.752Z,15.22
2023-05-11T04:46:58.078Z,15.23
2023-05-11T04:49:01.409Z,15.26
2023-05-11T04:51:05.272Z,15.27
2023-05-11T04:53:07.126Z,15.29
2023-05-11T04:55:09.196Z,15.32
2023-05-11T04:57:11.214Z,15.34
2023-05-11T04:59:13.262Z,15.37
2023-05-11T05:01:15.594Z,15.40
2023-05-11T05:03:17.517Z,15.43
2023-05-11T05:05:20.932Z,15.47
2023-05-11T05:07:22.524Z,15.51
2023-05-11T05:09:24.184Z,15.55
2023-05-11T05:11:25.864Z,15.62
2023-05-11T05:13:27.478Z,15.69
2023-05-11T05:15:29.017Z,15.74
2023-05-11T05:17:30.847Z,15.80
2023-05-11T05:19:32.443Z,15.85
2023-05-11T05:21:35.717Z,15.90
2023-05-11T05:23:37.507Z,15.93
2023-05-11T05:25:39.020Z,15.96
2023-05-11T05:27:41.291Z,15.99
2023-05-11T05:29:42.804Z,16.02
2023-05-11T05:31:44.393Z,16.07
2023-05-11T05:33:46.292Z,16.12
2023-05-11T05:35:47.924Z,16.16
2023-05-11T05:37:50.833Z,16.20
2023-05-11T05:39:52.465Z,16.24
2023-05-11T05:41:54.271Z,16.27
2023-05-11T05:43:56.129Z,16.31
2023-05-11T05:45:58.037Z,16.35
2023-05-11T05:47:59.994Z,16.37
2023-05-11T05:50:01.559Z,16.39
2023-05-11T05:52:03.372Z,16.41
2023-05-11T05:54:10.558Z,16.43
2023-05-11T05:56:12.402Z,16.43
2023-05-11T05:58:13.878Z,16.45
2023-05-11T06:00:16.263Z,16.46
2023-05-11T06:02:18.447Z,16.49
2023-05-11T06:04:20.050Z,16.51
2023-05-11T06:06:21.915Z,16.52
2023-05-11T06:08:23.827Z,16.54
2023-05-11T06:10:27.046Z,16.53
2023-05-11T06:12:28.576Z,16.55
2023-05-11T06:14:30.103Z,16.59
2023-05-11T06:16:31.742Z,16.61
2023-05-11T06:18:33.652Z,16.65
2023-05-11T06:20:35.282Z,16.69
2023-05-11T06:22:36.916Z,16.76
2023-05-11T06:24:38.611Z,16.87
2023-05-11T06:26:41.941Z,16.98
2023-05-11T06:28:43.823Z,17.10
2023-05-11T06:30:45.371Z,17.22
2023-05-11T06:32:46.997Z,17.36
2023-05-11T06:34:48.783Z,17.50
2023-05-11T06:36:50.942Z,17.66
2023-05-11T06:38:52.786Z,17.80
2023-05-11T06:40:54.345Z,17.89
2023-05-11T06:42:57.499Z,18.03
2023-05-11T06:44:59.083Z,18.10
2023-05-11T06:47:01.209Z,18.20
2023-05-11T06:49:02.819Z,18.36
2023-05-11T06:51:04.770Z,18.47
2023-05-11T06:53:06.567Z,18.59
2023-05-11T06:55:13.193Z,18.70
2023-05-11T06:57:14.960Z,18.77
2023-05-11T06:59:18.311Z,18.86
2023-05-11T07:01:20.049Z,18.99
2023-05-11T07:03:21.879Z,19.06
2023-05-11T07:05:23.473Z,19.21
2023-05-11T07:07:25.239Z,19.28
2023-05-11T07:09:27.084Z,19.42
2023-05-11T07:11:28.840Z,19.59
2023-05-11T07:13:31.080Z,19.74
2023-05-11T07:15:34.199Z,19.92
2023-05-11T07:17:35.873Z,20.04
2023-05-11T07:19:37.765Z,20.21
2023-05-11T07:21:39.925Z,20.35
2023-05-11T07:23:41.745Z,20.45
2023-05-11T07:25:43.295Z,20.60
2023-05-11T07:27:45.033Z,20.73
2023-05-11T07:29:46.574Z,20.83
2023-05-11T07:31:49.611Z,20.97
2023-05-11T07:33:51.345Z,21.01
2023-05-11T07:35:53.703Z,21.07
2023-05-11T07:37:55.652Z,21.22
2023-05-11T07:39:57.834Z,21.35
2023-05-11T07:41:59.700Z,21.48
2023-05-11T07:44:01.215Z,21.57
2023-05-11T07:46:03.412Z,21.70
2023-05-11T07:48:06.848Z,21.88
2023-05-11T07:50:09.240Z,21.98
2023-05-11T07:52:10.872Z,22.12
2023-05-11T07:54:12.537Z,22.26
2023-05-11T07:56:14.175Z,22.31
2023-05-11T07:58:15.843Z,22.39
2023-05-11T08:00:18.516Z,22.48
2023-05-11T08:02:20.350Z,22.55
2023-05-11T08:04:23.394Z,22.62
2023-05-11T08:06:25.143Z,22.67
2023-05-11T08:08:27.053Z,22.71
2023-05-11T08:10:28.692Z,22.76
2023-05-11T08:12:30.666Z,22.86
2023-05-11T08:14:32.421Z,22.92
2023-05-11T08:16:34.062Z,22.99
2023-05-11T08:18:36.153Z,23.10
2023-05-11T08:20:39.468Z,23.20
2023-05-11T08:22:41.100Z,23.34
2023-05-11T08:24:42.714Z,23.50
2023-05-11T08:26:44.341Z,23.69
2023-05-11T08:28:46.168Z,23.89
2023-05-11T08:30:54.353Z,24.11
2023-05-11T08:32:58.892Z,24.32
2023-05-11T08:35:01.102Z,24.54
2023-05-11T08:37:04.570Z,24.73
2023-05-11T08:39:06.157Z,24.90
2023-05-11T08:41:08.055Z,25.05
2023-05-11T08:43:10.878Z,25.23
2023-05-11T08:45:13.266Z,25.44
2023-05-11T08:49:20.872Z,25.77
2023-05-11T08:51:23.118Z,25.92
2023-05-11T08:53:26.314Z,26.06
2023-05-11T08:55:29.873Z,26.20
2023-05-11T08:57:32.620Z,26.31
2023-05-11T08:59:34.490Z,26.42
2023-05-11T09:01:36.871Z,26.51
2023-05-11T09:03:40.013Z,26.54
2023-05-11T09:05:45.460Z,26.60
2023-05-11T09:07:50.576Z,26.69
2023-05-11T09:09:53.863Z,26.78
2023-05-11T09:11:55.738Z,26.87
2023-05-11T09:13:57.624Z,26.98
2023-05-11T09:15:59.518Z,27.11
2023-05-11T09:18:01.558Z,27.24
2023-05-11T09:20:05.934Z,27.33
2023-05-11T09:22:07.571Z,27.41
2023-05-11T09:24:11.913Z,27.50
2023-05-11T09:26:16.269Z,27.57
2023-05-11T09:28:25.531Z,27.65
2023-05-11T09:30:27.835Z,27.74
2023-05-11T09:32:47.120Z,27.87
2023-05-11T09:34:49.040Z,27.96
2023-05-11T09:36:52.411Z,28.05
2023-05-11T09:38:57.337Z,28.08
2023-05-11T09:40:59.064Z,28.08
2023-05-11T09:43:02.716Z,28.03
2023-05-11T09:45:05.236Z,28.03
2023-05-11T09:47:11.418Z,28.07
2023-05-11T09:49:13.172Z,28.07
2023-05-11T09:51:14.824Z,28.10
2023-05-11T09:53:16.654Z,28.14
2023-05-11T09:55:18.565Z,28.17
2023-05-11T09:57:26.608Z,28.24
2023-05-11T09:59:40.713Z,28.35
2023-05-11T10:01:42.536Z,28.40
2023-05-11T10:03:53.844Z,28.48
2023-05-11T10:05:59.651Z,28.55
2023-05-11T10:08:03.046Z,28.62
2023-05-11T10:10:06.337Z,28.65
2023-05-11T10:12:08.929Z,28.65
2023-05-11T10:14:12.485Z,28.70
2023-05-11T10:16:17.391Z,28.69
2023-05-11T10:18:20.378Z,28.67
2023-05-11T10:20:22.818Z,28.68
2023-05-11T10:22:26.170Z,28.74
2023-05-11T10:24:28.628Z,28.79
2023-05-11T10:26:31.827Z,28.81
2023-05-11T10:28:33.783Z,28.85
2023-05-11T10:30:36.091Z,28.90
2023-05-11T10:32:39.725Z,28.97
2023-05-11T10:34:42.608Z,29.04
2023-05-11T10:36:46.380Z,29.09
2023-05-11T10:38:48.271Z,29.14
2023-05-11T10:40:53.297Z,29.19
2023-05-11T10:43:15.247Z,29.29
2023-05-11T10:45:22.128Z,29.35
2023-05-11T10:47:41.672Z,29.45
2023-05-11T10:50:04.369Z,29.57
2023-05-11T10:52:30.612Z,29.67
2023-05-11T10:54:49.373Z,29.81
2023-05-11T10:57:09.048Z,29.95
2023-05-11T10:59:30.581Z,30.11
2023-05-11T11:01:38.216Z,30.20
2023-05-11T11:03:40.137Z,30.28
2023-05-11T11:05:43.452Z,30.31
2023-05-11T11:07:57.951Z,30.39
2023-05-11T11:10:01.878Z,30.38
2023-05-11T11:12:09.880Z,30.45
2023-05-11T11:14:13.922Z,30.48
2023-05-11T11:16:16.773Z,30.52
2023-05-11T11:18:22.897Z,30.59
2023-05-11T11:20:47.441Z,30.69
2023-05-11T11:22:49.442Z,30.72
2023-05-11T11:24:51.480Z,30.74
2023-05-11T11:26:53.095Z,30.73
2023-05-11T11:29:08.571Z,30.73
2023-05-11T11:31:26.841Z,30.64
2023-05-11T11:33:33.096Z,30.59
2023-05-11T11:35:48.833Z,30.52
2023-05-11T11:38:03.707Z,30.48
2023-05-11T11:40:14.685Z,30.53
2023-05-11T11:42:18.844Z,30.58
2023-05-11T11:44:21.184Z,30.66
2023-05-11T11:46:27.273Z,30.75
2023-05-11T11:48:31.135Z,30.72
2023-05-11T11:50:33.364Z,30.69
2023-05-11T11:52:36.731Z,30.66
2023-05-11T11:54:38.560Z,30.64
2023-05-11T11:56:44.357Z,30.57
2023-05-11T11:58:58.850Z,30.53
2023-05-11T12:01:02.100Z,30.42
2023-05-11T12:03:05.055Z,30.32
2023-05-11T12:05:11.564Z,30.27
2023-05-11T12:07:16.153Z,30.18
2023-05-11T12:09:19.586Z,30.15
2023-05-11T12:11:22.384Z,30.13
2023-05-11T12:13:24.961Z,30.14
2023-05-11T12:15:28.524Z,30.13
2023-05-11T12:17:30.210Z,30.11
2023-05-11T12:19:31.899Z,30.11
2023-05-11T12:21:33.704Z,30.03
2023-05-11T12:23:35.411Z,29.95
2023-05-11T12:25:38.429Z,29.90
2023-05-11T12:27:48.271Z,29.83
2023-05-11T12:29:50.025Z,29.75
2023-05-11T12:31:51.823Z,29.66
2023-05-11T12:33:53.501Z,29.56
2023-05-11T12:35:56.808Z,29.49
2023-05-11T12:38:00.808Z,29.46
2023-05-11T12:40:02.598Z,29.45
2023-05-11T12:42:06.205Z,29.47
2023-05-11T12:44:07.807Z,29.47
2023-05-11T12:46:09.877Z,29.46
2023-05-11T12:48:12.787Z,29.49
2023-05-11T12:50:14.898Z,29.60
2023-05-11T12:52:16.608Z,29.59
2023-05-11T12:54:29.626Z,29.65
2023-05-11T12:56:31.271Z,29.65
2023-05-11T12:58:40.629Z,29.67
2023-05-11T13:00:51.318Z,29.68
2023-05-11T13:02:54.681Z,29.70
2023-05-11T13:04:58.274Z,29.67
2023-05-11T13:07:00.021Z,29.66
2023-05-11T13:09:01.991Z,29.63
2023-05-11T13:11:19.964Z,29.73
2023-05-11T13:13:28.650Z,29.75
2023-05-11T13:15:33.893Z,29.78
2023-05-11T13:17:37.081Z,29.80
2023-05-11T13:19:39.243Z,29.77
2023-05-11T13:21:40.831Z,29.74
2023-05-11T13:23:48.855Z,29.68
2023-05-11T13:25:53.852Z,29.60
2023-05-11T13:27:55.764Z,29.45
2023-05-11T13:29:57.533Z,29.34
2023-05-11T13:32:00.813Z,29.23
2023-05-11T13:34:02.376Z,29.11
2023-05-11T13:36:04.645Z,29.05
2023-05-11T13:38:06.856Z,28.94
2023-05-11T13:40:09.728Z,28.83
2023-05-11T13:42:11.512Z,28.76
2023-05-11T13:44:13.563Z,28.67
2023-05-11T13:46:15.216Z,28.61
2023-05-11T13:48:18.734Z,28.56
2023-05-11T13:50:20.838Z,28.55
2023-05-11T13:52:22.982Z,28.49
2023-05-11T13:54:24.769Z,28.45
2023-05-11T13:56:26.485Z,28.47
2023-05-11T13:58:28.103Z,28.41
2023-05-11T14:00:29.821Z,28.32
2023-05-11T14:02:33.098Z,28.17
2023-05-11T14:04:36.215Z,28.09
2023-05-11T14:06:38.080Z,28.04
2023-05-11T14:08:40.029Z,28.03
2023-05-11T14:10:41.967Z,28.07
2023-05-11T14:12:43.681Z,28.14
2023-05-11T14:14:45.328Z,28.24
2023-05-11T14:16:47.109Z,28.34
2023-05-11T14:18:49.303Z,28.38
2023-05-11T14:20:53.325Z,28.46
2023-05-11T14:22:54.927Z,28.42
2023-05-11T14:24:56.512Z,28.38
2023-05-11T14:26:58.800Z,28.33
2023-05-11T14:29:00.431Z,28.23
2023-05-11T14:31:02.694Z,28.14
2023-05-11T14:33:04.359Z,28.07
2023-05-11T14:35:06.665Z,28.03
2023-05-11T14:37:09.926Z,27.97
2023-05-11T14:39:11.493Z,27.92
2023-05-11T14:41:13.148Z,27.89
2023-05-11T14:43:15.026Z,27.90
2023-05-11T14:45:17.199Z,27.91
2023-05-11T14:47:19.289Z,27.90
2023-05-11T14:49:21.005Z,27.88
2023-05-11T14:51:23.154Z,27.90
2023-05-11T14:53:26.500Z,27.88
2023-05-11T14:55:28.469Z,27.86
2023-05-11T14:57:30.144Z,27.82
2023-05-11T14:59:32.017Z,27.77
2023-05-11T15:01:33.867Z,27.71
2023-05-11T15:03:36.251Z,27.66
2023-05-11T15:05:38.288Z,27.60
2023-05-11T15:07:40.340Z,27.56
2023-05-11T15:09:45.885Z,27.53
2023-05-11T15:11:47.512Z,27.47
2023-05-11T15:13:49.395Z,27.45
2023-05-11T15:15:51.950Z,27.41
2023-05-11T15:17:53.992Z,27.37
2023-05-11T15:19:55.916Z,27.34
2023-05-11T15:21:57.539Z,27.29
2023-05-11T15:23:59.085Z,27.22
2023-05-11T15:26:02.529Z,27.15
2023-05-11T15:28:04.324Z,27.12
2023-05-11T15:30:07.553Z,27.08
2023-05-11T15:32:13.740Z,27.08
2023-05-11T15:34:15.588Z,27.03
2023-05-11T15:36:19.413Z,26.97
2023-05-11T15:38:21.712Z,26.93
2023-05-11T15:40:23.760Z,26.89
2023-05-11T15:42:26.751Z,26.85
2023-05-11T15:44:29.912Z,26.80
2023-05-11T15:46:31.805Z,26.71
2023-05-11T15:48:33.408Z,26.61
2023-05-11T15:50:35.355Z,26.52
2023-05-11T15:52:37.250Z,26.44
2023-05-11T15:54:38.911Z,26.37
2023-05-11T15:56:40.711Z,26.29
2023-05-11T15:58:44.027Z,26.22
2023-05-11T16:00:45.723Z,26.16
2023-05-11T16:02:47.446Z,26.10
2023-05-11T16:04:49.294Z,26.02
2023-05-11T16:06:50.979Z,25.95
2023-05-11T16:08:52.842Z,25.90
2023-05-11T16:10:54.467Z,25.86
2023-05-11T16:12:58.707Z,25.82
2023-05-11T16:15:01.984Z,25.80
2023-05-11T16:17:03.841Z,25.77
2023-05-11T16:19:05.600Z,25.76
2023-05-11T16:21:07.590Z,25.67
2023-05-11T16:23:09.130Z,25.57
2023-05-11T16:25:11.165Z,25.49
2023-05-11T16:27:12.791Z,25.40
2023-05-11T16:29:14.605Z,25.29
2023-05-11T16:31:18.004Z,25.16
2023-05-11T16:33:19.662Z,25.05
2023-05-11T16:35:21.570Z,24.94
2023-05-11T16:37:23.300Z,24.85
2023-05-11T16:39:24.852Z,24.80
2023-05-11T16:41:26.927Z,24.76
2023-05-11T16:43:28.482Z,24.67
2023-05-11T16:45:30.127Z,24.63
2023-05-11T16:47:33.051Z,24.61
2023-05-11T16:49:34.743Z,24.57
2023-05-11T16:51:36.362Z,24.55
2023-05-11T16:53:37.868Z,24.50
2023-05-11T16:55:39.519Z,24.44
2023-05-11T16:57:41.167Z,24.43
2023-05-11T16:59:42.805Z,24.40
2023-05-11T17:01:44.913Z,24.36
2023-05-11T17:03:48.467Z,24.33
2023-05-11T17:05:50.692Z,24.29
2023-05-11T17:07:52.287Z,24.22
2023-05-11T17:09:53.830Z,24.15
2023-05-11T17:11:55.796Z,24.08
2023-05-11T17:13:57.569Z,23.99
2023-05-11T17:15:59.240Z,23.89
2023-05-11T17:18:00.975Z,23.80
2023-05-11T17:20:04.946Z,23.71
2023-05-11T17:22:07.631Z,23.60
2023-05-11T17:24:09.509Z,23.50
2023-05-11T17:26:12.423Z,23.40
2023-05-11T17:28:14.727Z,23.27
2023-05-11T17:30:16.628Z,23.16
2023-05-11T17:32:18.545Z,23.04
2023-05-11T17:34:22.097Z,22.95
2023-05-11T17:36:26.874Z,22.87
2023-05-11T17:38:28.757Z,22.78
2023-05-11T17:40:30.567Z,22.70
2023-05-11T17:42:32.214Z,22.64
2023-05-11T17:44:33.791Z,22.56
2023-05-11T17:46:35.535Z,22.49
2023-05-11T17:48:37.171Z,22.41
2023-05-11T17:50:38.824Z,22.30
2023-05-11T17:52:41.870Z,22.19
2023-05-11T17:54:43.775Z,22.09
2023-05-11T17:56:45.825Z,22.00
2023-05-11T17:58:47.608Z,21.91
2023-05-11T18:00:49.921Z,21.80
2023-05-11T18:02:51.863Z,21.71
2023-05-11T18:04:53.659Z,21.63
2023-05-11T18:06:55.273Z,21.56
2023-05-11T18:08:58.909Z,21.51
2023-05-11T18:11:00.817Z,21.46
2023-05-11T18:13:03.084Z,21.39
2023-05-11T18:15:05.850Z,21.31
2023-05-11T18:17:07.456Z,21.24
2023-05-11T18:19:09.804Z,21.14
2023-05-11T18:21:11.692Z,21.04
2023-05-11T18:23:13.350Z,20.97
2023-05-11T18:25:16.411Z,20.87
2023-05-11T18:27:18.040Z,20.80
2023-05-11T18:29:19.653Z,20.72
2023-05-11T18:31:21.531Z,20.63
2023-05-11T18:33:23.261Z,20.55
2023-05-11T18:35:25.087Z,20.48
2023-05-11T18:37:26.902Z,20.38
2023-05-11T18:39:28.807Z,20.30
2023-05-11T18:41:32.121Z,20.21
2023-05-11T18:43:33.878Z,20.14
2023-05-11T18:45:35.687Z,20.08
2023-05-11T18:47:37.293Z,20.03
2023-05-11T18:49:39.123Z,19.95
2023-05-11T18:51:40.846Z,19.87
2023-05-11T18:53:42.441Z,19.79
2023-05-11T18:55:52.564Z,19.74
2023-05-11T18:57:57.065Z,19.68
2023-05-11T18:59:58.634Z,19.64
2023-05-11T19:02:00.601Z,19.58
2023-05-11T19:04:02.566Z,19.53
2023-05-11T19:06:06.253Z,19.45
2023-05-11T19:08:07.867Z,19.36
2023-05-11T19:10:10.119Z,19.30
2023-05-11T19:12:11.720Z,19.23
2023-05-11T19:14:14.842Z,19.17
2023-05-11T19:16:16.538Z,19.12
2023-05-11T19:18:18.066Z,19.08
2023-05-11T19:20:20.471Z,19.04
2023-05-11T19:22:22.439Z,18.98
2023-05-11T19:24:23.968Z,18.93
2023-05-11T19:26:25.502Z,18.86
2023-05-11T19:28:27.602Z,18.81
2023-05-11T19:30:30.714Z,18.74
2023-05-11T19:32:32.273Z,18.68
2023-05-11T19:34:34.123Z,18.62
2023-05-11T19:36:35.988Z,18.54
2023-05-11T19:38:37.512Z,18.48
2023-05-11T19:40:45.994Z,18.43
2023-05-11T19:42:48.148Z,18.36
2023-05-11T19:44:50.596Z,18.30
2023-05-11T19:46:56.709Z,18.25
2023-05-11T19:48:58.777Z,18.21
2023-05-11T19:51:00.365Z,18.17
2023-05-11T19:53:01.978Z,18.11
2023-05-11T19:55:04.189Z,18.06
2023-05-11T19:57:05.848Z,18.00
2023-05-11T19:59:07.474Z,17.95
2023-05-11T20:01:09.067Z,17.87
2023-05-11T20:03:12.212Z,17.81
2023-05-11T20:05:14.004Z,17.76
2023-05-11T20:07:15.800Z,17.70
2023-05-11T20:09:17.326Z,17.66
2023-05-11T20:11:18.922Z,17.60
2023-05-11T20:13:20.789Z,17.53
2023-05-11T20:15:22.367Z,17.47
2023-05-11T20:17:24.213Z,17.41
2023-05-11T20:19:27.569Z,17.34
2023-05-11T20:21:29.127Z,17.28
2023-05-11T20:23:30.800Z,17.20
2023-05-11T20:25:32.451Z,17.14
2023-05-11T20:27:34.616Z,17.07
2023-05-11T20:29:36.477Z,17.02
2023-05-11T20:31:38.052Z,16.97
2023-05-11T20:36:02.912Z,16.86
2023-05-11T20:38:04.563Z,16.81
2023-05-11T20:40:07.436Z,16.76
2023-05-11T20:42:09.091Z,16.72
2023-05-11T20:44:10.670Z,16.69
2023-05-11T20:46:12.330Z,16.65
2023-05-11T20:48:14.042Z,16.60
2023-05-11T20:50:15.666Z,16.55
2023-05-11T20:52:18.884Z,16.51
2023-05-11T20:54:20.504Z,16.48
2023-05-11T20:56:21.994Z,16.45
2023-05-11T20:58:23.641Z,16.41
2023-05-11T21:00:25.893Z,16.36
2023-05-11T21:02:28.220Z,16.33
2023-05-11T21:04:29.887Z,16.29
2023-05-11T21:06:31.571Z,16.24
2023-05-11T21:08:34.554Z,16.22
2023-05-11T21:10:36.736Z,16.17
2023-05-11T21:12:38.292Z,16.13
2023-05-11T21:14:39.929Z,16.10
2023-05-11T21:16:41.489Z,16.05
2023-05-11T21:18:43.243Z,16.03
2023-05-11T21:20:44.861Z,15.97
2023-05-11T21:22:46.470Z,15.93
2023-05-11T21:24:49.810Z,15.89
2023-05-11T21:26:51.674Z,15.85
2023-05-11T21:28:53.527Z,15.81
2023-05-11T21:30:55.150Z,15.79
2023-05-11T21:32:56.799Z,15.76
2023-05-11T21:34:58.473Z,15.73
2023-05-11T21:37:00.323Z,15.70
2023-05-11T21:39:01.939Z,15.68
2023-05-11T21:41:06.504Z,15.67
2023-05-11T21:43:10.171Z,15.62
2023-05-11T21:45:12.676Z,15.59
2023-05-11T21:47:14.529Z,15.57
2023-05-11T21:49:16.299Z,15.54
2023-05-11T21:51:17.877Z,15.52
2023-05-11T21:53:19.488Z,15.49
2023-05-11T21:55:21.613Z,15.48
2023-05-11T21:57:24.707Z,15.45
2023-05-11T21:59:26.419Z,15.43
2023-05-11T22:01:28.402Z,15.42
2023-05-11T22:03:30.191Z,15.39
2023-05-11T22:05:31.949Z,15.37
2023-05-11T22:07:33.552Z,15.35
2023-05-11T22:09:35.155Z,15.32
2023-05-11T22:11:39.150Z,15.28
2023-05-11T22:13:42.343Z,15.27
2023-05-11T22:15:44.198Z,15.25
2023-05-11T22:17:47.541Z,15.24
2023-05-11T22:19:49.299Z,15.23
2023-05-11T22:21:51.119Z,15.22
2023-05-11T22:23:53.027Z,15.21
2023-05-11T22:25:54.651Z,15.20
2023-05-11T22:27:56.275Z,15.18
2023-05-11T22:29:59.459Z,15.17
2023-05-11T22:32:01.339Z,15.16
2023-05-11T22:34:03.283Z,15.14
2023-05-11T22:36:05.328Z,15.13
2023-05-11T22:38:06.963Z,15.12
2023-05-11T22:40:09.752Z,15.13
2023-05-11T22:42:11.287Z,15.11
2023-05-11T22:44:12.791Z,15.10
2023-05-11T22:46:16.146Z,15.08
2023-05-11T22:48:17.728Z,15.07
2023-05-11T22:50:19.642Z,15.06
2023-05-11T22:52:21.378Z,15.03
2023-05-11T22:54:22.934Z,15.02
2023-05-11T22:56:24.927Z,15.00
2023-05-11T22:58:26.819Z,14.97
2023-05-11T23:00:28.949Z,14.96
2023-05-11T23:02:32.083Z,14.92
2023-05-11T23:04:33.748Z,14.92
2023-05-11T23:06:35.789Z,14.90
2023-05-11T23:08:37.665Z,14.86
2023-05-11T23:10:40.929Z,14.86
2023-05-11T23:12:42.962Z,14.84
2023-05-11T23:14:45.016Z,14.81
2023-05-11T23:16:46.621Z,14.80
2023-05-11T23:18:49.736Z,14.78
2023-05-11T23:20:55.776Z,14.77
2023-05-11T23:22:57.457Z,14.76
2023-05-11T23:24:59.232Z,14.75
2023-05-11T23:27:00.829Z,14.74
2023-05-11T23:29:02.542Z,14.74
2023-05-11T23:31:04.447Z,14.73
2023-05-11T23:33:06.126Z,14.73
2023-05-11T23:35:10.092Z,14.73
2023-05-11T23:37:11.846Z,14.74
2023-05-11T23:39:13.850Z,14.74
2023-05-11T23:41:15.512Z,14.75
2023-05-11T23:43:17.105Z,14.76
2023-05-11T23:45:18.613Z,14.77
2023-05-11T23:47:20.446Z,14.78
2023-05-11T23:49:22.384Z,14.77
2023-05-11T23:51:27.787Z,14.77
2023-05-11T23:53:29.421Z,14.76
2023-05-11T23:55:30.922Z,14.77
2023-05-11T23:57:32.551Z,14.77
2023-05-11T23:59:34.120Z,14.76
